HKNW

Nairobi Wilson Airport

Nairobi, Kenya
METAR HKNW 180400Z 07007KT 9999 FEW018 16/14 Q1020
Observed Flight Rules
Feb-18 @ 04:00 UTC (3 hours ago) Visual Flight Rules
Wind Visibility Clouds
70° at 7 knots 10,000+ meters
  • Few at 1,800' AGL
Temperatures Readings
Current 16°C / 61°F
Dewpoint 14°C / 57°F
Humidity 88%
Altimeter 30.12" Hg
Pressure 1020 hPa
Elevation 1679
METAR HKNW 180400Z 07007KT 9999 FEW018 16/14 Q1020
Observed Flight Rules
Feb-18 @ 04:00 UTC
(3 hours ago)
VFR
Wind Visibility
70° at 7 knots 10,000+ meters
Clouds
  • Few at 1,800' AGL
Temperature Dewpoint
16°C / 61°F 14°C / 57°F
Humidity Altimeter Pressure
88% 30.12" Hg 1020 hPa